Time;durP1;ratioP1;P1;durP2;ratioP2;P2;SDS_P1;SDS_P2;PMS_P1;PMS_P2;Temp;Humidity;BMP_temperature;BMP_pressure;BME280_temperature;BME280_humidity;BME280_pressure;Samples;Min_cycle;Max_cycle;Signal;HPM_P1;HPM_P2
2021/03/20 00:00:32;;;;;;;;;40.00;35.70;;;;;5.68;61.97;100457.34;487664;112;385719;-71
2021/03/20 00:01:38;;;;;;;;;39.20;30.50;;;;;5.65;62.10;100461.95;487509;112;385571;-71
2021/03/20 00:02:42;;;;;;;;;39.80;33.10;;;;;5.63;62.61;100451.50;487786;112;386486;-70
2021/03/20 00:03:45;;;;;;;;;43.20;33.80;;;;;5.63;62.61;100451.50;487961;112;386860;-71
2021/03/20 00:04:49;;;;;;;;;45.40;36.40;;;;;5.61;62.73;100450.75;487128;112;394244;-73
2021/03/20 00:05:54;;;;;;;;;38.60;33.60;;;;;5.61;61.88;100453.39;489506;111;385792;-72
2021/03/20 00:06:58;;;;;;;;;49.50;36.80;;;;;5.61;62.04;100450.75;487083;112;388259;-74
2021/03/20 00:08:02;;;;;;;;;40.60;32.30;;;;;5.60;62.05;100449.03;489561;111;384603;-72
2021/03/20 00:09:07;;;;;;;;;37.30;34.50;;;;;5.64;61.57;100449.72;487388;112;385995;-74
2021/03/20 00:10:14;;;;;;;;;45.10;37.20;;;;;5.64;61.57;100449.72;488950;111;387457;-74
2021/03/20 00:11:18;;;;;;;;;37.10;30.60;;;;;5.59;62.08;100451.75;487036;112;389312;-72
2021/03/20 00:12:22;;;;;;;;;31.20;26.70;;;;;5.60;61.89;100458.73;489519;111;383361;-74
2021/03/20 00:13:26;;;;;;;;;41.10;33.80;;;;;5.60;61.89;100458.73;487336;112;394716;-72
2021/03/20 00:14:30;;;;;;;;;38.20;30.40;;;;;5.57;61.99;100449.22;489447;111;391999;-72
2021/03/20 00:15:34;;;;;;;;;43.00;37.70;;;;;5.55;61.92;100453.70;489482;111;386603;-73
2021/03/20 00:16:39;;;;;;;;;54.20;39.40;;;;;5.55;61.92;100453.70;486966;112;396491;-72
2021/03/20 00:17:43;;;;;;;;;38.80;33.40;;;;;5.49;62.22;100456.70;487387;112;385817;-72
2021/03/20 00:18:47;;;;;;;;;44.00;34.70;;;;;5.49;62.22;100456.70;486991;112;386303;-72
2021/03/20 00:19:51;;;;;;;;;44.90;36.10;;;;;5.46;62.39;100456.88;489451;111;386667;-71
2021/03/20 00:20:54;;;;;;;;;45.80;37.00;;;;;5.43;63.15;100443.86;487375;112;387038;-70
2021/03/20 00:21:58;;;;;;;;;47.10;37.90;;;;;5.43;63.06;100456.19;488965;111;386667;-72
2021/03/20 00:23:02;;;;;;;;;39.90;37.60;;;;;5.43;63.06;100456.19;487304;112;386313;-72
2021/03/20 00:24:07;;;;;;;;;49.40;38.90;;;;;5.42;63.43;100446.60;487381;112;387704;-73
2021/03/20 00:25:12;;;;;;;;;39.70;34.70;;;;;5.44;63.07;100452.62;489218;111;384681;-71
2021/03/20 00:26:17;;;;;;;;;47.50;34.00;;;;;5.46;63.94;100456.02;487095;112;387027;-71
2021/03/20 00:27:21;;;;;;;;;49.30;36.90;;;;;5.46;63.94;100456.02;487386;112;386523;-71
2021/03/20 00:28:25;;;;;;;;;41.40;35.60;;;;;5.43;63.30;100445.64;487382;112;385492;-71
2021/03/20 00:29:29;;;;;;;;;40.80;34.10;;;;;5.42;63.86;100449.23;488801;111;385458;-73
2021/03/20 00:30:34;;;;;;;;;42.00;37.60;;;;;5.42;63.70;100444.82;489273;111;392356;-72
2021/03/20 00:31:38;;;;;;;;;45.80;31.00;;;;;5.39;63.93;100449.41;487288;112;391794;-75
2021/03/20 00:32:42;;;;;;;;;38.80;33.30;;;;;5.36;63.07;100444.31;487455;112;386074;-73
2021/03/20 00:33:46;;;;;;;;;42.90;35.60;;;;;5.36;63.07;100444.31;487373;112;385733;-72
2021/03/20 00:34:50;;;;;;;;;45.40;30.10;;;;;5.34;63.77;100447.88;489492;111;385665;-73
2021/03/20 00:35:53;;;;;;;;;44.70;37.30;;;;;5.23;63.33;100446.80;487342;112;391749;-71
2021/03/20 00:36:57;;;;;;;;;44.90;34.40;;;;;5.19;64.12;100440.84;489460;111;388007;-70
2021/03/20 00:38:01;;;;;;;;;45.10;36.20;;;;;5.16;64.22;100443.65;487279;112;387244;-72
2021/03/20 00:39:05;;;;;;;;;47.40;38.80;;;;;5.16;64.22;100443.65;489450;111;387804;-70
2021/03/20 00:40:13;;;;;;;;;44.00;34.10;;;;;5.16;64.22;100443.65;487112;112;387825;-74
2021/03/20 00:41:17;;;;;;;;;44.40;37.50;;;;;5.18;64.23;100451.45;488824;111;393702;-73
2021/03/20 00:42:21;;;;;;;;;48.70;36.00;;;;;5.14;64.10;100445.50;487314;112;387380;-72
2021/03/20 00:43:26;;;;;;;;;46.00;37.60;;;;;5.13;64.22;100449.09;489175;111;387122;-73
2021/03/20 00:44:29;;;;;;;;;44.00;34.10;;;;;5.13;64.22;100449.09;489496;111;386350;-72
2021/03/20 00:45:33;;;;;;;;;42.40;37.50;;;;;5.15;64.40;100446.35;489476;111;393295;-73
2021/03/20 00:46:39;;;;;;;;;46.20;38.60;;;;;5.15;64.14;100447.20;488404;111;393262;-72
2021/03/20 00:47:43;;;;;;;;;49.60;37.90;;;;;5.15;64.14;100447.20;487351;112;387992;-72
2021/03/20 00:48:46;;;;;;;;;47.90;37.80;;;;;5.19;65.18;100451.38;487343;112;387472;-72
2021/03/20 00:49:50;;;;;;;;;45.20;35.70;;;;;5.19;65.18;100451.38;489019;111;385906;-72
2021/03/20 00:50:55;;;;;;;;;42.90;32.50;;;;;5.21;64.37;100444.23;487096;112;386589;-72
2021/03/20 00:51:59;;;;;;;;;45.20;37.80;;;;;5.20;64.33;100450.42;486892;112;386341;-73
2021/03/20 00:53:03;;;;;;;;;49.30;39.80;;;;;5.20;64.33;100450.42;489436;111;386777;-72
2021/03/20 00:54:07;;;;;;;;;50.00;39.70;;;;;5.22;64.41;100450.36;487428;112;387038;-71
2021/03/20 00:55:12;;;;;;;;;49.20;38.10;;;;;5.24;64.72;100446.69;487344;112;387471;-71
2021/03/20 00:56:16;;;;;;;;;47.10;39.60;;;;;5.24;64.72;100446.69;488884;111;386330;-72
2021/03/20 00:57:20;;;;;;;;;43.10;38.60;;;;;5.17;64.71;100452.41;487269;112;389441;-73
2021/03/20 00:58:26;;;;;;;;;49.20;38.70;;;;;5.17;64.71;100452.41;489435;111;386062;-72
2021/03/20 00:59:30;;;;;;;;;43.90;35.70;;;;;5.13;65.44;100449.09;489144;111;386681;-70
2021/03/20 01:00:34;;;;;;;;;45.20;38.50;;;;;5.13;65.44;100449.09;487120;112;386844;-70
2021/03/20 01:01:39;;;;;;;;;36.50;33.00;;;;;5.14;65.87;100450.77;487096;112;385335;-71
2021/03/20 01:02:43;;;;;;;;;40.20;31.70;;;;;5.19;65.53;100448.75;489475;111;387713;-72
2021/03/20 01:03:47;;;;;;;;;53.55;39.73;;;;;5.19;65.53;100448.75;487230;112;393716;-71
2021/03/20 01:04:51;;;;;;;;;42.10;36.50;;;;;5.22;65.83;100450.36;488975;111;387183;-72
2021/03/20 01:05:55;;;;;;;;;38.50;34.60;;;;;5.24;65.50;100454.60;490453;111;386043;-72
2021/03/20 01:06:59;;;;;;;;;39.80;33.30;;;;;5.24;65.85;100451.97;488607;111;385570;-70
2021/03/20 01:08:03;;;;;;;;;43.70;35.50;;;;;5.27;65.68;100457.06;488994;111;387142;-71
2021/03/20 01:09:07;;;;;;;;;47.00;37.90;;;;;5.30;66.24;100453.40;488534;111;386757;-72
2021/03/20 01:10:15;;;;;;;;;39.50;32.60;;;;;5.33;65.88;100456.72;488746;111;385150;-72
2021/03/20 01:11:19;;;;;;;;;42.00;36.30;;;;;5.33;67.04;100446.17;488551;111;385476;-72
2021/03/20 01:12:23;;;;;;;;;38.10;31.60;;;;;5.33;67.04;100446.17;488975;111;386770;-72
2021/03/20 01:13:27;;;;;;;;;35.80;31.70;;;;;5.28;66.17;100453.50;489033;111;385724;-71
2021/03/20 01:14:30;;;;;;;;;48.50;33.80;;;;;5.30;65.62;100451.62;488508;111;387899;-72
2021/03/20 01:15:34;;;;;;;;;37.90;31.10;;;;;5.25;65.69;100445.77;488964;111;392610;-71
2021/03/20 01:16:40;;;;;;;;;50.70;38.80;;;;;5.23;66.05;100444.98;488286;111;387897;-72
2021/03/20 01:17:44;;;;;;;;;36.20;32.70;;;;;5.23;65.81;100441.52;488989;111;385428;-72
2021/03/20 01:18:48;;;;;;;;;34.30;28.80;;;;;5.22;66.05;100448.58;488575;111;383545;-70
2021/03/20 01:19:51;;;;;;;;;41.60;33.20;;;;;5.22;66.05;100448.58;488930;111;394914;-72
2021/03/20 01:20:55;;;;;;;;;41.70;32.70;;;;;5.15;66.51;100443.72;488962;111;391920;-72
2021/03/20 01:22:00;;;;;;;;;43.40;33.40;;;;;5.15;66.51;100443.72;488265;111;385781;-72
2021/03/20 01:23:04;;;;;;;;;42.70;36.00;;;;;5.14;67.00;100445.50;488936;111;393060;-72
2021/03/20 01:24:09;;;;;;;;;41.70;34.00;;;;;5.12;66.90;100446.52;488650;111;392591;-71
2021/03/20 01:25:14;;;;;;;;;42.70;34.50;;;;;5.13;66.91;100446.45;488738;111;386172;-71
2021/03/20 01:26:18;;;;;;;;;46.30;35.00;;;;;5.15;67.00;100446.35;488350;111;394343;-73
2021/03/20 01:27:22;;;;;;;;;38.70;33.30;;;;;5.15;67.00;100446.35;489082;111;385107;-71
2021/03/20 01:28:26;;;;;;;;;45.00;34.80;;;;;5.13;67.00;100443.81;489076;111;386387;-72
2021/03/20 01:29:30;;;;;;;;;40.50;35.40;;;;;5.12;66.62;100447.37;488985;111;386056;-70
2021/03/20 01:30:39;;;;;;;;;40.70;36.20;;;;;5.12;66.62;100447.37;488343;111;385036;-73
2021/03/20 01:31:43;;;;;;;;;39.30;34.80;;;;;5.14;66.16;100449.91;488447;111;386943;-70
2021/03/20 01:32:46;;;;;;;;;45.80;35.40;;;;;5.14;66.16;100449.91;488953;111;387685;-70
2021/03/20 01:33:50;;;;;;;;;44.20;35.90;;;;;5.10;67.05;100446.63;488945;111;394301;-70
2021/03/20 01:34:54;;;;;;;;;41.90;35.40;;;;;5.10;66.56;100443.98;488898;111;394849;-72
2021/03/20 01:35:58;;;;;;;;;37.90;31.30;;;;;5.12;67.67;100446.52;488595;111;385788;-71
2021/03/20 01:37:02;;;;;;;;;42.70;34.30;;;;;5.12;67.67;100446.52;489023;111;385191;-73
2021/03/20 01:38:06;;;;;;;;;39.00;36.20;;;;;5.04;67.51;100452.20;489012;111;390543;-71
2021/03/20 01:39:10;;;;;;;;;40.20;35.00;;;;;5.04;67.51;100452.20;489036;111;386115;-74
2021/03/20 01:40:16;;;;;;;;;40.70;35.30;;;;;5.04;68.27;100449.57;488436;111;387301;-71
2021/03/20 01:41:21;;;;;;;;;47.50;40.10;;;;;5.05;68.67;100450.42;488709;111;387379;-71
2021/03/20 01:42:25;;;;;;;;;38.40;29.00;;;;;5.04;68.44;100449.57;488821;111;384954;-71
2021/03/20 01:43:29;;;;;;;;;46.70;38.90;;;;;5.04;68.54;100449.57;488945;111;393045;-72
2021/03/20 01:44:34;;;;;;;;;42.10;35.60;;;;;5.04;68.54;100449.57;488705;111;392325;-71
2021/03/20 01:45:37;;;;;;;;;45.80;36.20;;;;;5.07;68.66;100449.44;489005;111;386480;-71
2021/03/20 01:46:47;;;;;;;;;45.70;36.20;;;;;5.07;68.66;100449.44;488391;111;387058;-71
2021/03/20 01:47:54;;;;;;;;;43.80;36.10;;;;;5.05;69.19;100446.01;487956;111;385817;-71
2021/03/20 01:48:58;;;;;;;;;44.40;37.60;;;;;5.05;69.19;100446.01;488458;111;387040;-72
2021/03/20 01:50:02;;;;;;;;;42.00;34.60;;;;;5.06;69.05;100442.45;489017;111;384246;-71
2021/03/20 01:51:09;;;;;;;;;41.50;36.10;;;;;5.08;69.68;100439.71;489028;111;385032;-72
2021/03/20 01:52:20;;;;;;;;;45.80;38.00;;;;;5.08;69.68;100439.71;488414;111;386870;-69
2021/03/20 01:53:31;;;;;;;;;38.70;32.90;;;;;5.08;70.62;100434.44;488463;111;385356;-72
2021/03/20 01:54:41;;;;;;;;;41.50;35.30;;;;;5.04;70.91;100433.76;488676;111;391896;-74
2021/03/20 01:55:45;;;;;;;;;47.70;38.50;;;;;5.04;70.91;100433.76;488227;111;387293;-73
2021/03/20 01:56:49;;;;;;;;;24.00;18.90;;;;;5.01;70.66;100436.56;488824;111;388210;-73
2021/03/20 01:57:54;;;;;;;;;41.80;37.20;;;;;5.01;70.66;100436.56;489045;111;385463;-73
2021/03/20 01:58:58;;;;;;;;;42.90;35.70;;;;;5.05;70.39;100443.38;488406;111;386086;-72
2021/03/20 02:00:06;;;;;;;;;37.20;29.70;;;;;5.05;70.39;100443.38;488995;111;385396;-72
2021/03/20 02:01:13;;;;;;;;;41.40;38.20;;;;;4.99;71.21;100438.45;487917;111;394056;-73
2021/03/20 02:02:17;;;;;;;;;42.20;35.20;;;;;5.00;71.38;100442.80;488474;111;385454;-72
2021/03/20 02:03:21;;;;;;;;;47.20;37.70;;;;;5.00;71.38;100442.80;488931;111;385299;-73
2021/03/20 02:04:25;;;;;;;;;43.60;36.10;;;;;4.98;71.69;100443.81;488631;111;385530;-74
2021/03/20 02:05:30;;;;;;;;;37.20;29.80;;;;;4.92;72.07;100439.70;489058;111;386605;-71
2021/03/20 02:06:34;;;;;;;;;45.20;36.70;;;;;4.96;71.66;100445.67;487987;111;386848;-72
2021/03/20 02:07:38;;;;;;;;;41.50;36.70;;;;;4.96;71.55;100446.52;489024;111;387419;-72
2021/03/20 02:08:42;;;;;;;;;37.50;26.10;;;;;4.96;71.55;100446.52;489088;111;384320;-70
2021/03/20 02:09:46;;;;;;;;;42.80;36.50;;;;;4.91;71.82;100443.30;488358;111;386210;-72
2021/03/20 02:10:50;;;;;;;;;48.20;37.10;;;;;4.93;72.12;100446.69;489033;111;386581;-72
2021/03/20 02:11:59;;;;;;;;;43.20;34.10;;;;;4.93;72.12;100446.69;488494;111;386650;-71
2021/03/20 02:13:06;;;;;;;;;41.80;35.80;;;;;4.91;72.27;100432.77;488692;111;385369;-72
2021/03/20 02:14:17;;;;;;;;;43.40;35.70;;;;;4.90;72.69;100446.86;488817;111;385369;-73
2021/03/20 02:15:23;;;;;;;;;42.70;33.00;;;;;4.94;71.94;100442.28;488469;111;385802;-71
2021/03/20 02:16:32;;;;;;;;;47.10;37.40;;;;;4.94;72.50;100443.13;488321;111;386512;-71
2021/03/20 02:17:39;;;;;;;;;39.60;33.10;;;;;4.94;72.50;100443.13;488678;111;386061;-71
2021/03/20 02:18:45;;;;;;;;;42.20;32.70;;;;;4.96;71.65;100443.88;488442;111;386926;-72
2021/03/20 02:20:32;;;;;;;;;42.30;34.80;;;;;4.96;71.65;100443.88;488465;111;385656;-73
2021/03/20 02:21:38;;;;;;;;;41.90;36.60;;;;;4.96;71.75;100443.03;474554;111;384917;-71
2021/03/20 02:23:30;;;;;;;;;42.60;34.60;;;;;4.96;71.75;100443.03;488716;111;391207;-73
2021/03/20 02:24:57;;;;;;;;;43.00;36.50;;;;;4.96;71.21;100441.25;488442;111;385483;-70
2021/03/20 02:26:24;;;;;;;;;46.00;39.70;;;;;4.92;71.28;100444.98;488696;111;386501;-70
2021/03/20 02:28:05;;;;;;;;;45.30;33.40;;;;;4.92;71.28;100444.98;488435;111;386773;-71
2021/03/20 02:29:49;;;;;;;;;49.50;37.00;;;;;4.95;71.39;100439.54;488503;111;386707;-70
2021/03/20 02:31:14;;;;;;;;;42.50;35.10;;;;;4.96;71.62;100435.98;465375;117;385912;-70
2021/03/20 02:32:23;;;;;;;;;40.50;36.10;;;;;4.95;71.88;100444.81;476680;111;385820;-69
2021/03/20 02:33:49;;;;;;;;;45.80;36.20;;;;;4.96;71.75;100441.25;488429;111;385995;-71
2021/03/20 02:34:57;;;;;;;;;49.00;37.40;;;;;4.96;71.75;100441.25;488498;111;387156;-69
2021/03/20 02:36:14;;;;;;;;;43.80;36.30;;;;;4.94;71.58;100434.38;488661;111;386585;-70
2021/03/20 02:37:20;;;;;;;;;46.80;39.40;;;;;4.94;71.58;100434.38;488719;111;387575;-70
2021/03/20 02:38:27;;;;;;;;;40.30;37.20;;;;;4.93;71.41;100445.84;488430;111;386794;-70
2021/03/20 02:39:35;;;;;;;;;43.70;38.70;;;;;4.95;71.78;100443.95;488507;111;386180;-70
2021/03/20 02:40:43;;;;;;;;;40.30;36.40;;;;;4.94;72.03;100440.50;488718;111;384691;-70
2021/03/20 02:41:49;;;;;;;;;48.10;39.80;;;;;4.94;72.03;100440.50;488758;111;386404;-70
2021/03/20 02:42:56;;;;;;;;;46.30;37.60;;;;;4.94;71.77;100442.28;488445;111;386764;-71
2021/03/20 02:44:06;;;;;;;;;36.40;31.10;;;;;4.94;71.31;100443.13;488579;111;384782;-69
2021/03/20 02:45:13;;;;;;;;;47.10;39.30;;;;;4.95;71.73;100444.81;488729;111;387294;-70
2021/03/20 02:46:21;;;;;;;;;44.10;37.70;;;;;4.94;71.85;100451.03;488523;111;386325;-71
2021/03/20 02:47:27;;;;;;;;;48.40;37.80;;;;;4.93;72.00;100451.11;488431;111;386058;-71
2021/03/20 02:48:36;;;;;;;;;48.00;40.10;;;;;4.92;72.25;100450.25;488437;111;386393;-70
2021/03/20 02:49:42;;;;;;;;;40.90;37.90;;;;;4.92;72.25;100450.25;488526;111;386570;-71
2021/03/20 02:50:49;;;;;;;;;43.00;35.20;;;;;4.90;72.87;100457.41;488428;111;386407;-70
2021/03/20 02:51:56;;;;;;;;;47.00;39.40;;;;;4.89;73.09;100460.96;488450;111;392581;-69
2021/03/20 02:53:02;;;;;;;;;45.90;37.00;;;;;4.89;73.09;100460.96;479516;113;386819;-72
2021/03/20 02:54:07;;;;;;;;;47.80;37.90;;;;;4.89;72.74;100458.33;481442;113;386780;-71
2021/03/20 02:55:11;;;;;;;;;48.10;37.60;;;;;4.86;72.54;100453.22;480301;113;386223;-71
2021/03/20 02:56:17;;;;;;;;;44.70;38.10;;;;;4.85;72.75;100456.78;488426;111;394254;-72
2021/03/20 02:57:22;;;;;;;;;53.60;42.00;;;;;4.84;72.71;100455.10;488441;111;384602;-72
2021/03/20 02:58:27;;;;;;;;;47.20;40.00;;;;;4.87;72.38;100454.94;488761;111;384682;-71
2021/03/20 02:59:33;;;;;;;;;49.70;38.60;;;;;4.87;72.38;100454.94;488721;111;386817;-71
2021/03/20 03:00:39;;;;;;;;;46.70;38.90;;;;;4.88;71.90;100459.28;488421;111;389409;-71
2021/03/20 03:01:45;;;;;;;;;44.60;38.00;;;;;4.89;72.08;100466.23;488778;111;387112;-72
2021/03/20 03:02:48;;;;;;;;;37.20;33.00;;;;;4.89;72.34;100453.05;488717;111;385488;-71
2021/03/20 03:03:53;;;;;;;;;46.20;37.70;;;;;4.91;71.84;100459.11;488951;111;386384;-74
2021/03/20 03:04:59;;;;;;;;;40.80;36.10;;;;;4.92;72.82;100460.80;489035;111;386367;-72
2021/03/20 03:06:05;;;;;;;;;41.90;36.30;;;;;4.92;72.82;100460.80;488547;111;385633;-75
2021/03/20 03:07:12;;;;;;;;;44.70;37.10;;;;;4.90;72.93;100460.03;488399;111;390838;-71
2021/03/20 03:08:18;;;;;;;;;36.80;33.10;;;;;4.92;72.22;100449.39;488710;111;385998;-72
2021/03/20 03:09:23;;;;;;;;;46.10;39.30;;;;;4.92;72.22;100449.39;488401;111;386524;-72
2021/03/20 03:10:29;;;;;;;;;41.40;34.50;;;;;4.93;72.91;100446.69;488376;111;392037;-72
2021/03/20 03:11:34;;;;;;;;;50.10;38.40;;;;;4.93;72.91;100446.69;488695;111;387641;-72
2021/03/20 03:12:39;;;;;;;;;42.40;36.50;;;;;4.93;72.97;100454.59;488703;111;386918;-72
2021/03/20 03:13:46;;;;;;;;;48.00;39.30;;;;;4.92;73.22;100444.98;488708;111;384262;-70
2021/03/20 03:14:53;;;;;;;;;43.80;37.90;;;;;4.91;73.55;100451.20;488375;111;386788;-72
2021/03/20 03:15:59;;;;;;;;;54.20;38.40;;;;;4.91;73.31;100443.30;488396;111;389020;-73
2021/03/20 03:17:03;;;;;;;;;44.50;39.80;;;;;4.91;73.14;100443.30;488489;111;386252;-72
2021/03/20 03:18:09;;;;;;;;;44.70;37.10;;;;;4.91;73.14;100443.30;488961;111;386204;-75
2021/03/20 03:19:14;;;;;;;;;48.80;37.70;;;;;4.90;72.96;100454.77;488676;111;386090;-70
2021/03/20 03:20:22;;;;;;;;;46.30;37.20;;;;;4.90;72.60;100454.77;479401;113;387290;-72
2021/03/20 03:21:27;;;;;;;;;49.30;40.50;;;;;4.90;72.60;100454.77;474319;113;386077;-73
2021/03/20 03:22:34;;;;;;;;;47.70;39.20;;;;;4.88;73.14;100454.02;480146;113;387918;-72
2021/03/20 03:23:39;;;;;;;;;52.30;38.20;;;;;4.89;73.19;100455.69;488702;111;387107;-71
2021/03/20 03:24:42;;;;;;;;;45.70;38.70;;;;;4.90;73.27;100454.77;488818;111;385233;-71
2021/03/20 03:25:48;;;;;;;;;43.30;37.20;;;;;4.90;73.27;100454.77;488485;111;385918;-72
2021/03/20 03:26:53;;;;;;;;;54.50;40.10;;;;;4.87;73.14;100451.45;488424;111;394223;-73
2021/03/20 03:27:57;;;;;;;;;45.70;38.10;;;;;4.83;73.87;100448.13;488720;111;386789;-71
2021/03/20 03:29:05;;;;;;;;;44.30;39.10;;;;;4.83;73.87;100448.13;488671;111;387467;-71
2021/03/20 03:30:12;;;;;;;;;52.80;40.10;;;;;4.81;74.26;100452.64;488434;111;390845;-72
2021/03/20 03:31:19;;;;;;;;;39.10;33.00;;;;;4.80;74.08;100457.05;488789;111;384578;-72
2021/03/20 03:32:26;;;;;;;;;38.70;32.70;;;;;4.80;74.45;100450.92;488522;111;385035;-71
2021/03/20 03:33:31;;;;;;;;;46.30;38.90;;;;;4.80;73.60;100456.19;488661;111;386341;-71
2021/03/20 03:34:41;;;;;;;;;47.50;39.90;;;;;4.82;73.90;100456.12;488698;111;386566;-72
2021/03/20 03:35:46;;;;;;;;;44.90;40.40;;;;;4.82;73.90;100456.12;488431;111;393210;-73
2021/03/20 03:36:52;;;;;;;;;45.20;36.40;;;;;4.86;73.69;100457.64;488685;111;386232;-73
2021/03/20 03:38:00;;;;;;;;;51.00;40.80;;;;;4.85;73.62;100454.14;488695;111;385581;-73
2021/03/20 03:39:08;;;;;;;;;48.40;40.20;;;;;4.87;73.52;100451.45;487904;111;386497;-72
2021/03/20 03:40:15;;;;;;;;;45.30;38.90;;;;;4.86;74.09;100447.95;488145;111;386855;-72
2021/03/20 03:41:21;;;;;;;;;45.10;38.60;;;;;4.86;74.09;100447.95;488740;111;386348;-71
2021/03/20 03:42:25;;;;;;;;;54.00;41.70;;;;;4.85;74.14;100453.33;488710;111;387207;-71
2021/03/20 03:43:29;;;;;;;;;45.30;38.10;;;;;4.83;74.08;100445.48;488707;111;386653;-72
2021/03/20 03:44:33;;;;;;;;;48.20;39.10;;;;;4.85;74.39;100455.95;488912;111;386336;-71
2021/03/20 03:45:37;;;;;;;;;51.30;40.20;;;;;4.86;74.33;100455.00;488696;111;387028;-71
2021/03/20 03:46:44;;;;;;;;;50.30;39.80;;;;;4.87;74.07;100454.94;488419;111;386014;-70
2021/03/20 03:47:48;;;;;;;;;52.30;41.30;;;;;4.88;74.04;100453.16;488769;111;386593;-72
2021/03/20 03:48:53;;;;;;;;;50.60;40.10;;;;;4.88;74.04;100453.16;489027;111;394082;-70
2021/03/20 03:49:58;;;;;;;;;53.80;43.50;;;;;4.88;74.35;100450.52;488001;111;384135;-71
2021/03/20 03:51:09;;;;;;;;;55.40;42.10;;;;;4.88;74.35;100450.52;488721;111;386863;-74
2021/03/20 03:52:13;;;;;;;;;50.80;42.80;;;;;4.85;74.75;100454.14;488501;111;383900;-75
2021/03/20 03:53:19;;;;;;;;;55.70;42.50;;;;;4.82;74.97;100456.95;488724;111;393278;-73
2021/03/20 03:54:23;;;;;;;;;56.90;43.20;;;;;4.78;74.50;100460.70;488468;111;392103;-74
2021/03/20 03:55:26;;;;;;;;;58.60;47.50;;;;;4.78;74.50;100460.70;489023;111;385114;-72
2021/03/20 03:56:44;;;;;;;;;55.50;43.90;;;;;4.79;74.74;100459.75;479730;113;385553;-74
2021/03/20 03:57:58;;;;;;;;;60.10;44.90;;;;;4.78;74.04;100458.92;483990;111;385704;-74
2021/03/20 03:59:08;;;;;;;;;46.10;38.50;;;;;4.81;74.66;100457.91;488661;111;385652;-74
2021/03/20 04:00:20;;;;;;;;;48.80;43.00;;;;;4.79;74.94;100462.39;488438;111;384604;-74
2021/03/20 04:01:31;;;;;;;;;51.70;40.90;;;;;4.79;74.94;100462.39;488804;111;384159;-74
2021/03/20 04:02:43;;;;;;;;;52.70;44.70;;;;;4.62;75.34;100441.39;488431;111;390911;-75
2021/03/20 04:04:00;;;;;;;;;55.90;43.40;;;;;4.73;75.01;100463.58;488763;111;387316;-74
2021/03/20 04:05:06;;;;;;;;;61.00;46.70;;;;;4.73;75.01;100463.58;488425;111;385461;-75
2021/03/20 04:06:25;;;;;;;;;56.70;44.20;;;;;4.72;75.24;100461.86;488495;111;385020;-75
2021/03/20 04:07:40;;;;;;;;;53.70;45.00;;;;;4.78;74.46;100468.61;488714;111;393108;-74
2021/03/20 04:08:49;;;;;;;;;51.10;42.80;;;;;4.79;74.71;100473.78;486994;111;387516;-74
2021/03/20 04:10:01;;;;;;;;;57.30;42.60;;;;;4.79;74.71;100473.78;482948;111;386249;-73
2021/03/20 04:11:09;;;;;;;;;47.60;36.70;;;;;4.80;74.58;100466.73;483295;111;387145;-73
2021/03/20 04:12:17;;;;;;;;;50.40;43.30;;;;;4.82;74.32;100472.76;483912;111;387768;-74
2021/03/20 04:13:24;;;;;;;;;57.40;44.80;;;;;4.86;74.89;100473.45;482214;111;384830;-74
2021/03/20 04:14:30;;;;;;;;;50.50;41.40;;;;;4.88;74.96;100468.97;487118;111;385342;-75
2021/03/20 04:15:39;;;;;;;;;54.40;43.20;;;;;4.87;74.81;100468.11;488752;111;384337;-73
2021/03/20 04:16:45;;;;;;;;;63.20;49.80;;;;;4.86;75.05;100466.40;488768;111;387813;-74
2021/03/20 04:17:55;;;;;;;;;57.40;44.90;;;;;4.88;74.57;100468.97;488809;111;385378;-73
2021/03/20 04:19:03;;;;;;;;;54.60;43.90;;;;;4.88;74.57;100468.97;488450;111;384881;-70
2021/03/20 04:20:11;;;;;;;;;59.60;45.50;;;;;4.85;74.75;100469.95;488391;111;392889;-71
2021/03/20 04:21:22;;;;;;;;;54.20;43.80;;;;;4.86;74.81;100476.09;488707;111;383369;-72
2021/03/20 04:22:29;;;;;;;;;57.30;44.00;;;;;4.86;74.81;100476.09;488474;111;387906;-72
2021/03/20 04:23:34;;;;;;;;;51.60;42.90;;;;;4.86;74.79;100476.09;488785;111;385392;-73
2021/03/20 04:24:41;;;;;;;;;58.10;44.30;;;;;4.89;74.03;100473.28;488719;111;384777;-73
2021/03/20 04:25:48;;;;;;;;;47.20;39.70;;;;;4.90;74.56;100473.22;488491;111;385408;-71
2021/03/20 04:26:54;;;;;;;;;52.50;41.30;;;;;4.90;73.82;100478.48;488469;111;387633;-71
2021/03/20 04:28:02;;;;;;;;;51.30;41.80;;;;;4.90;73.82;100478.48;488560;111;384525;-71
2021/03/20 04:29:09;;;;;;;;;58.80;43.20;;;;;4.93;74.08;100477.46;488753;111;391757;-71
2021/03/20 04:30:18;;;;;;;;;42.70;31.60;;;;;4.95;74.06;100479.07;488804;111;386681;-73
2021/03/20 04:31:25;;;;;;;;;60.10;47.70;;;;;4.98;74.76;100481.54;488505;111;385290;-72
2021/03/20 04:32:32;;;;;;;;;54.90;43.00;;;;;5.02;74.21;100475.17;488791;111;386054;-70
2021/03/20 04:33:38;;;;;;;;;56.60;44.30;;;;;5.05;74.27;100482.91;488730;111;386068;-70
2021/03/20 04:34:44;;;;;;;;;56.90;44.80;;;;;5.02;74.12;100483.08;488497;111;384780;-70
2021/03/20 04:35:51;;;;;;;;;56.00;43.80;;;;;5.02;74.12;100483.08;488483;111;393053;-72
2021/03/20 04:36:58;;;;;;;;;61.00;46.50;;;;;4.98;74.33;100481.54;488769;111;387199;-75
2021/03/20 04:38:02;;;;;;;;;56.80;43.90;;;;;4.96;74.59;100480.78;488454;111;386162;-74
2021/03/20 04:39:06;;;;;;;;;57.30;44.50;;;;;4.96;74.59;100480.78;489079;111;386394;-72
2021/03/20 04:40:15;;;;;;;;;62.20;48.80;;;;;4.95;74.33;100481.70;488739;111;385463;-73
2021/03/20 04:41:19;;;;;;;;;64.60;48.10;;;;;4.91;75.12;100482.83;485886;111;386693;-74
2021/03/20 04:42:25;;;;;;;;;63.10;48.60;;;;;4.87;74.82;100478.66;489066;111;387019;-75
2021/03/20 04:43:30;;;;;;;;;57.80;45.90;;;;;4.87;74.82;100478.66;488362;111;392734;-74
2021/03/20 04:44:35;;;;;;;;;59.80;43.50;;;;;4.82;75.13;100479.84;488745;111;385539;-74
2021/03/20 04:45:40;;;;;;;;;59.00;46.50;;;;;4.82;75.13;100479.84;488676;111;392304;-74
2021/03/20 04:46:46;;;;;;;;;54.80;43.90;;;;;4.84;75.67;100477.97;488631;111;385805;-75
2021/03/20 04:47:50;;;;;;;;;42.70;35.60;;;;;4.84;75.67;100477.97;489008;111;386203;-74
2021/03/20 04:48:58;;;;;;;;;61.50;48.30;;;;;4.84;75.81;100484.09;489004;111;386080;-74
2021/03/20 04:50:04;;;;;;;;;59.50;46.50;;;;;4.87;75.41;100483.06;488658;111;385648;-74
2021/03/20 04:51:10;;;;;;;;;62.50;44.10;;;;;4.87;75.41;100483.06;488719;111;389185;-73
2021/03/20 04:52:16;;;;;;;;;61.90;49.40;;;;;4.83;76.17;100482.38;488472;111;386516;-72
2021/03/20 04:53:20;;;;;;;;;63.10;49.70;;;;;4.81;76.17;100478.98;488692;111;392228;-73
2021/03/20 04:54:27;;;;;;;;;64.40;49.60;;;;;4.81;76.17;100478.98;488986;111;385905;-72
2021/03/20 04:55:32;;;;;;;;;49.20;43.10;;;;;4.83;76.24;100477.11;488248;111;385995;-73
2021/03/20 04:56:42;;;;;;;;;64.70;51.30;;;;;4.83;76.24;100477.11;487842;111;392424;-72
2021/03/20 04:57:48;;;;;;;;;68.40;50.10;;;;;4.85;76.39;100479.67;488468;111;394955;-72
2021/03/20 04:58:52;;;;;;;;;67.60;52.70;;;;;4.85;76.39;100479.67;479444;113;386169;-71
2021/03/20 05:00:01;;;;;;;;;74.30;52.80;;;;;4.84;75.81;100478.81;482169;113;396155;-74
2021/03/20 05:01:08;;;;;;;;;67.80;52.10;;;;;4.83;75.71;100471.84;488151;111;387795;-74
2021/03/20 05:02:17;;;;;;;;;70.10;53.40;;;;;4.73;76.26;100474.11;488677;111;388499;-74
2021/03/20 05:03:23;;;;;;;;;66.90;50.80;;;;;4.73;76.26;100474.11;488337;111;394260;-76